createdAt,value
2018-04-19T17:10:16.956Z,47.96
2018-04-19T17:11:16.922Z,47.28
2018-04-19T17:13:11.361Z,47.86
2018-04-19T17:14:11.311Z,47.77
2018-04-19T17:16:05.704Z,48.64
2018-04-19T17:17:05.717Z,48.35
2018-04-19T17:19:00.140Z,49.22
2018-04-19T17:20:00.271Z,49.02
2018-04-19T17:21:54.498Z,49.12
2018-04-19T17:22:54.477Z,48.74
2018-04-19T17:24:48.967Z,49.90
2018-04-19T17:25:48.867Z,50.38
2018-04-19T17:27:43.559Z,50.84
2018-04-19T17:28:43.461Z,50.74
2018-04-19T17:30:37.905Z,51.03
2018-04-19T17:31:37.847Z,51.10
2018-04-19T17:33:32.249Z,51.97
2018-04-19T17:34:32.344Z,51.68
2018-04-19T17:36:26.729Z,52.07
2018-04-19T17:37:26.656Z,51.97
2018-04-19T17:39:21.027Z,52.26
2018-04-19T17:40:21.051Z,51.97
2018-04-19T17:41:21.035Z,52.23
2018-04-19T17:42:21.041Z,51.85
2018-04-19T17:43:21.046Z,52.53
2018-04-19T17:44:21.144Z,52.53
2018-04-19T17:45:21.056Z,52.14
2018-04-19T17:46:21.058Z,52.53
2018-04-19T17:47:21.065Z,52.91
2018-04-19T17:48:21.074Z,52.62
2018-04-19T17:49:21.085Z,52.91
2018-04-19T17:50:21.077Z,52.72
2018-04-19T17:51:21.087Z,52.53
2018-04-19T17:52:22.006Z,52.62
2018-04-19T17:53:21.188Z,52.62
2018-04-19T17:54:21.100Z,53.49
2018-04-19T17:55:21.104Z,53.78
2018-04-19T17:56:21.110Z,53.49
2018-04-19T17:57:21.116Z,53.47
2018-04-19T17:58:21.120Z,53.78
2018-04-19T17:59:21.129Z,53.69
2018-04-19T18:00:21.129Z,53.49
2018-04-19T18:01:21.136Z,54.14
2018-04-19T18:02:21.154Z,53.88
2018-04-19T18:03:21.145Z,53.75
2018-04-19T18:04:21.153Z,53.66
2018-04-19T18:05:21.158Z,53.95
2018-04-19T18:06:21.161Z,53.56
2018-04-19T18:07:21.168Z,54.14
2018-04-19T18:08:21.170Z,54.05
2018-04-19T18:09:21.176Z,54.43
2018-04-19T18:10:21.180Z,54.53
2018-04-19T18:11:21.184Z,55.10
2018-04-19T18:12:21.192Z,54.62
2018-04-19T18:13:21.195Z,55.59
2018-04-19T18:14:21.318Z,55.01
2018-04-19T18:15:21.321Z,54.82
2018-04-19T18:16:21.211Z,55.01
2018-04-19T18:17:21.216Z,55.20
2018-04-19T18:18:21.223Z,55.78
2018-04-19T18:19:21.241Z,55.49
2018-04-19T18:20:21.240Z,55.78
2018-04-19T18:21:21.258Z,55.76
2018-04-19T18:22:21.240Z,55.88
2018-04-19T18:23:21.244Z,56.46
2018-04-19T18:24:21.250Z,55.94
2018-04-19T18:25:21.257Z,56.33
2018-04-19T18:26:21.264Z,56.56
2018-04-19T18:27:21.269Z,56.52
2018-04-19T18:28:21.322Z,57.39
2018-04-19T18:29:21.276Z,57.01
2018-04-19T18:30:21.301Z,57.01
2018-04-19T18:31:21.358Z,57.01
2018-04-19T18:32:21.298Z,57.01
2018-04-19T18:33:21.316Z,57.59
2018-04-19T18:34:21.299Z,57.39
2018-04-19T18:35:21.305Z,57.97
2018-04-19T18:36:21.309Z,57.87
2018-04-19T18:37:21.315Z,57.94
2018-04-19T18:38:21.320Z,58.04
2018-04-19T18:39:21.324Z,58.14
2018-04-19T18:40:21.329Z,58.42
2018-04-19T18:41:21.336Z,58.62
2018-04-19T18:42:21.338Z,58.91
2018-04-19T18:43:21.344Z,58.81
2018-04-19T18:44:21.356Z,59.39
2018-04-19T18:45:21.358Z,59.94
2018-04-19T18:46:21.357Z,59.45
2018-04-19T18:47:21.362Z,59.84
2018-04-19T18:48:21.371Z,60.03
2018-04-19T18:49:21.374Z,60.13
2018-04-19T18:50:21.378Z,60.13
2018-04-19T18:51:21.388Z,60.61
2018-04-19T18:52:21.393Z,60.71
2018-04-19T18:53:21.402Z,60.71
2018-04-19T18:54:21.395Z,60.90
2018-04-19T18:55:21.399Z,61.00
2018-04-19T18:56:21.407Z,60.87
2018-04-19T18:57:21.427Z,60.97
2018-04-19T18:58:21.420Z,60.77
2018-04-19T18:59:21.416Z,61.16
2018-04-19T19:00:21.423Z,61.83
2018-04-19T19:01:21.432Z,62.32
2018-04-19T19:02:21.446Z,62.80
2018-04-19T19:03:21.436Z,62.41
2018-04-19T19:04:21.440Z,63.25
2018-04-19T19:05:21.442Z,63.57
2018-04-19T19:06:21.450Z,63.85
2018-04-19T19:07:21.452Z,64.40
2018-04-19T19:08:21.455Z,64.31
2018-04-19T19:09:21.460Z,64.59
2018-04-19T19:10:21.463Z,64.59
2018-04-19T19:11:21.480Z,65.08
2018-04-19T19:12:21.518Z,65.05
2018-04-19T19:13:21.499Z,65.66
2018-04-19T19:14:21.480Z,65.91
2018-04-19T19:15:21.487Z,65.63
2018-04-19T19:16:21.488Z,65.33
2018-04-19T19:17:21.494Z,65.72
2018-04-19T19:18:21.496Z,66.39
2018-04-19T19:19:21.500Z,66.39
2018-04-19T19:20:21.503Z,66.10
2018-04-19T19:21:21.509Z,66.10
2018-04-19T19:22:21.519Z,66.88
2018-04-19T19:23:21.522Z,67.26
2018-04-19T19:24:21.527Z,67.13
2018-04-19T19:25:21.528Z,67.03
2018-04-19T19:26:21.549Z,67.51
2018-04-19T19:27:21.556Z,67.51
2018-04-19T19:28:21.548Z,67.80
2018-04-19T19:29:21.542Z,67.71
2018-04-19T19:30:21.543Z,67.32
2018-04-19T19:31:21.550Z,67.32
2018-04-19T19:32:21.553Z,67.71
2018-04-19T19:33:21.562Z,68.09
2018-04-19T19:34:21.557Z,67.99
2018-04-19T19:35:21.562Z,67.90
2018-04-19T19:36:21.569Z,68.09
2018-04-19T19:37:21.578Z,67.99
2018-04-19T19:38:21.576Z,67.77
2018-04-19T19:39:21.579Z,68.35
2018-04-19T19:40:21.675Z,67.86
2018-04-19T19:41:21.583Z,69.21
2018-04-19T19:42:21.650Z,69.40
2018-04-19T19:43:21.590Z,68.92
2018-04-19T19:44:21.641Z,68.92
2018-04-19T19:45:21.597Z,69.12
2018-04-19T19:46:21.623Z,69.21
2018-04-19T19:47:21.603Z,69.75
2018-04-19T19:48:21.648Z,69.75
2018-04-19T19:49:21.654Z,69.85
2018-04-19T19:50:21.632Z,69.95
2018-04-19T19:51:21.622Z,69.46
2018-04-19T19:52:21.673Z,69.95
2018-04-19T19:53:21.636Z,70.04
2018-04-19T19:54:21.633Z,70.62
2018-04-19T19:55:21.655Z,70.81
2018-04-19T19:56:21.636Z,70.90
2018-04-19T19:57:21.648Z,70.81
2018-04-19T19:58:21.642Z,71.19
2018-04-19T19:59:21.643Z,70.90
2018-04-19T20:00:22.553Z,70.90
2018-04-19T20:01:21.651Z,69.95
2018-04-19T20:02:21.653Z,70.72
2018-04-19T20:03:21.699Z,70.81
2018-04-19T20:04:21.661Z,70.78
2018-04-19T20:05:21.767Z,70.78
2018-04-19T20:06:21.670Z,70.78
2018-04-19T20:07:21.669Z,71.16
2018-04-19T20:08:21.673Z,71.16
2018-04-19T20:09:21.694Z,71.16
2018-04-19T20:10:21.680Z,71.06
2018-04-19T20:11:21.684Z,71.06
2018-04-19T20:12:21.768Z,71.35
2018-04-19T20:13:21.691Z,71.55
2018-04-19T20:14:21.690Z,71.35
2018-04-19T20:15:21.694Z,71.35
2018-04-19T20:16:21.704Z,72.31
2018-04-19T20:17:21.706Z,72.69
2018-04-19T20:18:21.705Z,72.66
2018-04-19T20:19:21.706Z,72.66
2018-04-19T20:20:21.709Z,72.18
2018-04-19T20:21:21.711Z,72.37
2018-04-19T20:22:21.716Z,72.85
2018-04-19T20:23:21.737Z,72.75
2018-04-19T20:24:21.801Z,72.85
2018-04-19T20:25:21.722Z,73.24
2018-04-19T20:26:21.731Z,72.85
2018-04-19T20:27:21.728Z,73.33
2018-04-19T20:28:21.731Z,73.33
2018-04-19T20:29:21.746Z,73.91
2018-04-19T20:30:21.748Z,73.81
2018-04-19T20:31:21.742Z,73.62
2018-04-19T20:32:21.742Z,73.52
2018-04-19T20:33:21.754Z,73.58
2018-04-19T20:34:21.746Z,73.49
2018-04-19T20:35:21.754Z,74.16
2018-04-19T20:36:21.753Z,74.26
2018-04-19T20:37:21.756Z,74.26
2018-04-19T20:38:21.756Z,74.44
2018-04-19T20:39:21.807Z,74.35
2018-04-19T20:40:21.764Z,74.93
2018-04-19T20:41:21.769Z,74.73
2018-04-19T20:42:22.648Z,75.21
2018-04-19T20:43:21.771Z,74.44
2018-04-19T20:44:21.772Z,73.97
2018-04-19T20:45:21.778Z,74.83
2018-04-19T20:46:21.776Z,74.35
2018-04-19T20:47:21.779Z,74.93
2018-04-19T20:48:21.782Z,74.93
2018-04-19T20:49:21.784Z,74.26
2018-04-19T20:50:21.789Z,75.02
2018-04-19T20:51:21.790Z,75.12
2018-04-19T20:52:21.794Z,74.93
2018-04-19T20:53:21.816Z,75.40
2018-04-19T20:54:21.800Z,75.31
2018-04-19T20:55:21.801Z,75.02
2018-04-19T20:56:21.806Z,75.40
2018-04-19T20:57:21.807Z,75.46
2018-04-19T20:58:21.811Z,75.40
2018-04-19T20:59:21.808Z,76.04
2018-04-19T21:00:21.809Z,75.60
2018-04-19T21:01:21.812Z,75.65
2018-04-19T21:02:21.818Z,75.75
2018-04-19T21:03:21.816Z,75.85
2018-04-19T21:04:21.849Z,75.56
2018-04-19T21:05:21.821Z,75.75
2018-04-19T21:06:21.840Z,75.56
2018-04-19T21:07:21.828Z,75.65
2018-04-19T21:08:21.832Z,75.95
2018-04-19T21:09:21.832Z,76.62
2018-04-19T21:10:21.844Z,76.42
2018-04-19T21:11:21.846Z,76.32
2018-04-19T21:12:21.850Z,76.42
2018-04-19T21:13:21.844Z,76.81
2018-04-19T21:14:21.841Z,77.00
2018-04-19T21:15:21.843Z,77.00
2018-04-19T21:16:21.846Z,76.90
2018-04-19T21:17:21.849Z,77.19
2018-04-19T21:18:21.850Z,76.81
2018-04-19T21:19:21.853Z,76.52
2018-04-19T21:20:21.867Z,76.42
2018-04-19T21:21:21.861Z,76.90
2018-04-19T21:22:21.862Z,76.52
2018-04-19T21:23:21.871Z,76.81
2018-04-19T21:24:21.875Z,76.52
2018-04-19T21:25:21.870Z,76.90
2018-04-19T21:26:21.866Z,76.90
2018-04-19T21:27:21.868Z,77.09
2018-04-19T21:28:21.900Z,77.09
2018-04-19T21:29:21.875Z,77.09
2018-04-19T21:30:21.879Z,77.19
2018-04-19T21:31:21.878Z,77.38
2018-04-19T21:32:22.771Z,77.00
2018-04-19T21:33:21.898Z,77.09
2018-04-19T21:34:21.896Z,77.38
2018-04-19T21:35:21.886Z,77.29
2018-04-19T21:36:21.917Z,77.29
2018-04-19T21:37:21.906Z,78.05
2018-04-19T21:38:21.893Z,77.73
2018-04-19T21:39:21.894Z,77.53
2018-04-19T21:40:21.897Z,77.82
2018-04-19T21:41:21.902Z,77.92
2018-04-19T21:42:21.904Z,78.02
2018-04-19T21:43:21.901Z,78.20
2018-04-19T21:44:21.904Z,78.02
2018-04-19T21:45:21.909Z,78.59
2018-04-19T21:46:21.910Z,78.49
2018-04-19T21:47:21.910Z,78.49
2018-04-19T21:48:21.941Z,78.30
2018-04-19T21:49:21.929Z,78.49
2018-04-19T21:50:21.916Z,79.07
2018-04-19T21:51:21.943Z,78.97
2018-04-19T21:52:21.921Z,78.88
2018-04-19T21:53:21.933Z,79.26
2018-04-19T21:54:21.925Z,79.16
2018-04-19T21:55:21.934Z,79.55
2018-04-19T21:56:21.932Z,79.41
2018-04-19T21:57:21.930Z,79.64
2018-04-19T21:58:21.929Z,79.80
2018-04-19T21:59:21.933Z,79.99
2018-04-19T22:00:21.935Z,79.51
2018-04-19T22:01:21.935Z,79.70
2018-04-19T22:02:21.938Z,79.99
2018-04-19T22:03:21.940Z,79.80
2018-04-19T22:04:21.942Z,80.18
2018-04-19T22:05:21.947Z,79.89
2018-04-19T22:06:21.948Z,79.99
2018-04-19T22:07:21.948Z,79.70
2018-04-19T22:08:22.020Z,79.89
2018-04-19T22:09:21.955Z,79.99
2018-04-19T22:10:21.950Z,79.89
2018-04-19T22:11:21.955Z,79.60
2018-04-19T22:12:21.965Z,80.08
2018-04-19T22:13:21.957Z,80.18
2018-04-19T22:14:21.959Z,80.47
2018-04-19T22:15:21.964Z,80.47
2018-04-19T22:16:21.973Z,80.37
2018-04-19T22:17:21.962Z,80.27
2018-04-19T22:18:21.963Z,80.94
2018-04-19T22:19:21.966Z,80.76
2018-04-19T22:20:21.965Z,80.90
2018-04-19T22:21:21.969Z,81.48
2018-04-19T22:22:21.970Z,80.90
2018-04-19T22:23:21.973Z,80.71
2018-04-19T22:24:21.978Z,81.20
2018-04-19T22:25:21.976Z,80.71
2018-04-19T22:26:21.974Z,81.20
2018-04-19T22:27:21.975Z,80.90
2018-04-19T22:28:21.978Z,81.38
2018-04-19T22:29:21.978Z,81.38
2018-04-19T22:30:21.985Z,81.29
2018-04-19T22:31:21.981Z,81.20
2018-04-19T22:32:21.983Z,81.29
2018-04-19T22:33:21.989Z,81.38
2018-04-19T22:34:21.987Z,81.10
2018-04-19T22:35:21.988Z,81.20
2018-04-19T22:36:21.989Z,80.81
2018-04-19T22:37:21.992Z,81.48
2018-04-19T22:38:21.991Z,81.67
2018-04-19T22:39:21.992Z,82.06
2018-04-19T22:40:21.994Z,81.29
2018-04-19T22:41:21.997Z,82.24
2018-04-19T22:42:21.997Z,82.15
2018-04-19T22:43:21.998Z,81.38
2018-04-19T22:44:21.999Z,81.77
2018-04-19T22:45:22.002Z,81.57
2018-04-19T22:46:22.005Z,82.06
2018-04-19T22:47:22.003Z,81.96
2018-04-19T22:48:22.004Z,82.24
2018-04-19T22:49:22.007Z,82.15
2018-04-19T22:50:22.006Z,82.43
2018-04-19T22:51:22.016Z,81.96
2018-04-19T22:52:22.009Z,81.92
2018-04-19T22:53:22.011Z,82.49
2018-04-19T22:54:22.024Z,82.30
2018-04-19T22:55:22.014Z,82.01
2018-04-19T22:56:22.019Z,82.53
2018-04-19T22:57:22.014Z,82.97
2018-04-19T22:58:22.016Z,82.78
2018-04-19T22:59:22.022Z,82.68
2018-04-19T23:00:22.021Z,82.78
2018-04-19T23:01:22.020Z,82.97
2018-04-19T23:02:22.020Z,83.26
2018-04-19T23:03:22.024Z,83.26
2018-04-19T23:04:22.058Z,83.26
2018-04-19T23:05:22.024Z,83.64
2018-04-19T23:06:22.025Z,83.83
2018-04-19T23:07:22.031Z,83.64
2018-04-19T23:08:22.029Z,83.73
2018-04-19T23:09:22.029Z,83.36
2018-04-19T23:10:22.028Z,83.45
2018-04-19T23:11:22.031Z,83.73
2018-04-19T23:12:22.031Z,83.93
2018-04-19T23:13:22.032Z,83.73
2018-04-19T23:14:22.042Z,84.12
2018-04-19T23:15:22.030Z,84.22
2018-04-19T23:16:22.035Z,83.83
2018-04-19T23:17:22.034Z,84.22
2018-04-19T23:18:22.039Z,84.02
2018-04-19T23:19:22.036Z,84.08
2018-04-19T23:20:22.038Z,83.89
2018-04-19T23:21:22.047Z,84.50
2018-04-19T23:22:22.038Z,84.36
2018-04-19T23:23:22.039Z,84.17
2018-04-19T23:24:22.040Z,84.27
2018-04-19T23:25:22.042Z,84.55
2018-04-19T23:26:22.042Z,84.46
2018-04-19T23:27:22.045Z,84.55
2018-04-19T23:28:22.044Z,84.88
2018-04-19T23:29:22.046Z,84.46
2018-04-19T23:30:22.046Z,84.55
2018-04-19T23:31:22.045Z,84.46
2018-04-19T23:32:22.045Z,84.46
2018-04-19T23:33:22.047Z,84.65
2018-04-19T23:34:22.064Z,84.84
2018-04-19T23:35:22.052Z,84.75
2018-04-19T23:36:22.052Z,84.75
2018-04-19T23:37:22.049Z,84.46
2018-04-19T23:38:22.051Z,85.03
2018-04-19T23:39:23.538Z,84.94
2018-04-19T23:40:22.051Z,84.94
2018-04-19T23:41:22.192Z,84.84
2018-04-19T23:42:22.201Z,84.94
2018-04-19T23:43:22.057Z,85.51
2018-04-19T23:44:22.054Z,84.94
2018-04-19T23:45:22.058Z,85.32
2018-04-19T23:46:22.056Z,85.51
2018-04-19T23:47:22.057Z,84.75
2018-04-19T23:48:22.058Z,85.03
2018-04-19T23:49:22.060Z,85.03
2018-04-19T23:50:22.058Z,85.51
2018-04-19T23:51:22.058Z,85.61
2018-04-19T23:52:22.061Z,85.51
2018-04-19T23:53:22.059Z,85.61
2018-04-19T23:54:22.059Z,85.71
2018-04-19T23:55:22.062Z,85.51
2018-04-19T23:56:22.063Z,85.41
2018-04-19T23:57:22.069Z,85.51
2018-04-19T23:58:22.061Z,85.71
2018-04-19T23:59:22.063Z,85.51
